• Join FlightAware (Why Join?)
  • Login
  • US Flag 
03:16AM EDT


 

Airport Tracker/Info


-or-


 

Live Flight TrackerFlight Track Log ✈ JBU56 ✈ 26-Nov-2013 ✈ KIAD - KBOS

Flight Track Log - Related Links

Times and Time Zones

All times are in EST time to prevent confusion due to time zone crossing. See the JBU56 flight status page for this flight to view local times or setup timezone preferences in your user account.

Time Position Orientation Groundspeed Altitude Reporting Facility
EST Latitude Longitude Course Direction KTS MPH feet Rate Location/Type
09:57AM 38.9833 -77.5333 90° East 214 246 2,500  Level Potomac TRACON
09:58AM 39.0333 -77.5500 345° North 277 319 4,100 2,400 Climbing Potomac TRACON
09:59AM 39.1167 -77.5333 North 317 365 7,100 2,880 Climbing Potomac TRACON
10:00AM 39.2150 -76.9996 74° East  Level Estimated
10:00AM 39.1667 -77.4500 52° Northeast 319 367 9,900  Level Potomac TRACON
10:01AM 39.2816 -76.8840 90° East  Level Estimated
10:01AM 39.1667 -77.3333 90° East 349 402 10,200  Level Potomac TRACON
10:02AM 39.3481 -76.7681 90° East  Level Estimated
10:03AM 39.1083 -77.0869 107° East 399 459 14,500  Level Washington Center
10:04AM 39.0956 -76.9475 97° East 394 453 17,000 1,740 Climbing Washington Center
10:05AM 39.1094 -76.7981 83° East 394 453 18,000 1,440 Climbing Washington Center
10:06AM 39.1192 -76.6431 85° East 410 472 19,900 1,740 Climbing Washington Center
10:07AM 39.1331 -76.4747 84° East 440 506 21,600 1,440 Climbing Washington Center
10:08AM 39.1447 -76.3061 85° East 460 529 22,800 420 Climbing Washington Center
10:09AM 39.1642 -76.1378 81° East 472 543 22,500 60 Descending Washington Center
10:10AM 39.1817 -75.9664 82° East 482 555 23,000 720 Climbing Washington Center
10:11AM 39.2425 -75.8139 63° Northeast 475 547 24,000 1,080 Climbing Washington Center
10:12AM 39.3425 -75.6881 44° Northeast 475 547 25,300 1,200 Climbing Washington Center
10:13AM 39.4428 -75.5594 45° Northeast 489 563 26,500 1,200 Climbing Washington Center
10:14AM 39.5447 -75.4247 46° Northeast 501 577 27,700 1,080 Climbing Washington Center
10:15AM 39.6486 -75.2897 45° Northeast 512 589 28,700 1,140 Climbing Washington Center
10:16AM 39.7222 -75.1864 47° Northeast 536 617 29,700 1,260 Climbing New York Center
10:17AM 39.8325 -75.0286 48° Northeast 548 631 30,900 600 Climbing New York Center
10:18AM 39.9314 -74.8803 49° Northeast 542 624 31,000  Climbing New York Center
10:19AM 40.0242 -74.7339 50° Northeast 542 624 31,000  Level New York Center
10:20AM 40.1228 -74.5875 49° Northeast 535 616 31,000  Level New York Center
10:21AM 40.2211 -74.4381 49° Northeast 535 616 31,000  Level New York Center
10:22AM 40.3175 -74.2881 50° Northeast 535 616 31,000  Level New York Center
10:23AM 40.4181 -74.1322 50° Northeast 540 621 31,000  Level New York Center
10:25AM 40.5767 -73.8908 49° Northeast 555 639 31,000 -180 Level Boston Center
10:26AM 40.6944 -73.7050 50° Northeast 552 635 30,600 -1,380 Descending Boston Center
10:27AM 40.7925 -73.5500 50° Northeast 551 634 28,200 -1,800 Descending Boston Center
10:28AM 40.8878 -73.3992 50° Northeast 537 618 27,000 -960 Descending Boston Center
10:29AM 40.9889 -73.2531 47° Northeast 527 606 26,300 -1,440 Descending Boston Center
10:30AM 41.0847 -73.1100 48° Northeast 524 603 24,000 -2,160 Descending Boston Center
10:31AM 41.1744 -72.9739 49° Northeast 503 579 21,900 -1,500 Descending Boston Center
10:32AM 41.2494 -72.8328 55° Northeast 483 556 21,000 -480 Descending Boston Center
10:33AM 41.3117 -72.6681 63° Northeast 482 555 21,000  Level Boston Center
10:34AM 41.3703 -72.5064 64° Northeast 483 556 21,000  Level Boston Center
10:35AM 41.4303 -72.3444 64° Northeast 485 558 21,000  Level Boston Center
10:36AM 41.4883 -72.1856 64° Northeast 480 552 21,000  Level Boston Center
10:37AM 41.5542 -72.0028 64° Northeast 485 558 21,000 -960 Level Boston Center
10:38AM 41.6081 -71.8258 68° East 483 556 19,000 -1,860 Descending Boston Center
10:39AM 41.6553 -71.6664 68° East 467 537 17,300 -2,040 Descending Boston Center
10:40AM 41.6994 -71.5147 69° East 450 518 15,000 -2,040 Descending Boston Center
10:41AM 41.7511 -71.3683 65° Northeast 409 471 13,100 -1,740 Descending Boston Center
10:42AM 41.8028 -71.2472 60° Northeast 377 434 11,500 -1,080 Descending Boston Center
10:43AM 41.8511 -71.1342 60° Northeast 354 407 11,000 -300 Descending Boston Center
10:44AM 41.9042 -71.0119 60° Northeast 354 407 11,000  Level Boston Center
10:45AM 41.9528 -70.8989 60° Northeast 352 405 11,000 -60 Level Boston Center
10:46AM 41.9939 -70.8042 60° Northeast 336 387 10,900 -840 Descending Boston Center
10:47AM 42.0497 -70.7058 53° Northeast 332 382 9,400 -1,500 Descending Boston Center
10:48AM 42.1158 -70.6211 44° Northeast 336 387 7,900 -1,680 Descending Boston Center
10:49AM 42.1958 -70.6125 North 298 343 6,100 -1,980 Descending Boston Center
10:50AM 42.2833 -70.6472 344° North 273 314 4,000 -1,500 Descending Boston Center
10:51AM 42.3511 -70.6828 339° North 267 307 3,000 -540 Descending Boston Center
10:52AM 42.3975 -70.7503 313° West 254 292 3,000 -240 Level Boston Center
10:53AM 42.3919 -70.8219 264° West 211 243 2,600 -660 Descending Boston Center
10:54AM 42.3833 -70.8833 259° West 127 146 1,700 -780 Descending KA90
10:55AM 42.3667 -70.9333 246° West 121 139 900 -720 Descending KA90
10:56AM 42.3667 -70.9833 270° West 125 144 200 -780 Descending KA90